Observation data for Plains on 08/13/2019      Previous  Date  Next       Current Mesonet Observations  Soil Data  Daily Summary Page  Observations in Plain Language
KPPS 130500Z 33007KT 26/15 A2998 RMK A01 T02550145  RH  053%=      5-min Rain = 0
KPPS 130505Z 33007KT 26/15 A2999 RMK A01 T02550145  RH  053%=      5-min Rain = 0
KPPS 130510Z 33006KT 25/15 A2998 RMK A01 T02530146  RH  054%=      5-min Rain = 0
KPPS 130515Z 32006KT 25/15 A2998 RMK A01 T02520146  RH  054%=      5-min Rain = 0
KPPS 130520Z 32006KT 25/15 A2998 RMK A01 T02520147  RH  054%=      5-min Rain = 0
KPPS 130525Z 32005KT 25/15 A2998 RMK A01 T02520148  RH  055%=      5-min Rain = 0
KPPS 130530Z 31006KT 25/15 A2998 RMK A01 T02520149  RH  055%=      5-min Rain = 0
KPPS 130535Z 31005KT 25/15 A2998 RMK A01 T02540149  RH  055%=      5-min Rain = 0
KPPS 130540Z 31005KT 25/15 A2998 RMK A01 T02520150  RH  055%=      5-min Rain = 0
KPPS 130545Z 31005KT 25/15 A2999 RMK A01 T02510150  RH  056%=      5-min Rain = 0
KPPS 130550Z 30005KT 25/15 A2999 RMK A01 T02500150  RH  056%=      5-min Rain = 0
KPPS 130555Z 28003KT 25/15 A2999 RMK A01 T02500149  RH  056%=      5-min Rain = 0
KPPS 130600Z 30004KT 25/15 A2999 RMK A01 T02470148  RH  056%=      5-min Rain = 0
KPPS 130605Z 31004KT 25/15 A2999 RMK A01 T02490148  RH  056%=      5-min Rain = 0
KPPS 130610Z 30003KT 25/15 A2999 RMK A01 T02480147  RH  056%=      5-min Rain = 0
KPPS 130615Z 31003KT 25/15 A2999 RMK A01 T02480146  RH  055%=      5-min Rain = 0
KPPS 130620Z 33003KT 25/15 A2999 RMK A01 T02480147  RH  056%=      5-min Rain = 0
KPPS 130625Z 33005KT 24/15 A2999 RMK A01 T02440149  RH  058%=      5-min Rain = 0
KPPS 130630Z 34007G14KT 24/15 A30 RMK A01 T02400151  RH  060%=      5-min Rain = 0
KPPS 130635Z 35011G16KT 24/16 A30 RMK A01 T02440156  RH  061%=      5-min Rain = 0
KPPS 130640Z 36009KT 25/16 A30 RMK A01 T02450158  RH  061%=      5-min Rain = 0
KPPS 130645Z 00009KT 25/16 A30 RMK A01 T02450156  RH  060%=      5-min Rain = 0
KPPS 130650Z 01008KT 25/15 A3001 RMK A01 T02480154  RH  058%=      5-min Rain = 0
KPPS 130655Z 02007KT 25/15 A30 RMK A01 T02490153  RH  058%=      5-min Rain = 0
KPPS 130700Z 02007KT 25/15 A3001 RMK A01 T02480154  RH  058%=      5-min Rain = 0
KPPS 130705Z 01008KT 25/15 A3001 RMK A01 T02480154  RH  059%=      5-min Rain = 0
KPPS 130710Z 01008KT 25/16 A3001 RMK A01 T02460155  RH  059%=      5-min Rain = 0
KPPS 130715Z 01008KT 25/16 A3001 RMK A01 T02450156  RH  060%=      5-min Rain = 0
KPPS 130720Z 01008KT 25/16 A3001 RMK A01 T02450156  RH  061%=      5-min Rain = 0
KPPS 130725Z 01008KT 24/16 A3001 RMK A01 T02440157  RH  061%=      5-min Rain = 0
KPPS 130730Z 02007KT 24/16 A3001 RMK A01 T02420157  RH  062%=      5-min Rain = 0
KPPS 130735Z 01008KT 24/16 A3001 RMK A01 T02410157  RH  062%=      5-min Rain = 0
KPPS 130740Z 02008KT 24/16 A3001 RMK A01 T02400158  RH  063%=      5-min Rain = 0
KPPS 130745Z 01008KT 24/16 A3001 RMK A01 T02390158  RH  063%=      5-min Rain = 0
KPPS 130750Z 02008KT 24/16 A3001 RMK A01 T02380159  RH  064%=      5-min Rain = 0
KPPS 130755Z 02008KT 24/16 A3001 RMK A01 T02370159  RH  064%=      5-min Rain = 0
KPPS 130800Z 01008KT 24/16 A3001 RMK A01 T02360159  RH  065%=      5-min Rain = 0
KPPS 130805Z 01008KT 24/16 A3001 RMK A01 T02350160  RH  066%=      5-min Rain = 0
KPPS 130810Z 01008KT 23/16 A3001 RMK A01 T02340160  RH  066%=      5-min Rain = 0
KPPS 130815Z 01009KT 23/16 A3001 RMK A01 T02330162  RH  067%=      5-min Rain = 0
KPPS 130820Z 01009KT 23/16 A3001 RMK A01 T02330162  RH  068%=      5-min Rain = 0
KPPS 130825Z 02008KT 23/16 A3001 RMK A01 T02310163  RH  069%=      5-min Rain = 0
KPPS 130830Z 02008KT 23/16 A3001 RMK A01 T02300163  RH  069%=      5-min Rain = 0
KPPS 130835Z 01008KT 23/16 A3001 RMK A01 T02300164  RH  070%=      5-min Rain = 0
KPPS 130840Z 02007KT 23/16 A3001 RMK A01 T02290164  RH  070%=      5-min Rain = 0
KPPS 130845Z 01008KT 23/16 A3001 RMK A01 T02280164  RH  070%=      5-min Rain = 0
KPPS 130850Z 01007KT 23/16 A3001 RMK A01 T02270163  RH  071%=      5-min Rain = 0
KPPS 130855Z 01008KT 23/16 A3001 RMK A01 T02260163  RH  071%=      5-min Rain = 0
KPPS 130900Z 01009KT 23/16 A3001 RMK A01 T02250163  RH  072%=      5-min Rain = 0
KPPS 130905Z 01009KT 22/16 A3001 RMK A01 T02240163  RH  072%=      5-min Rain = 0
KPPS 130910Z 01009KT 22/16 A3001 RMK A01 T02230163  RH  072%=      5-min Rain = 0
KPPS 130915Z 01008KT 22/16 A3001 RMK A01 T02220163  RH  073%=      5-min Rain = 0
KPPS 130920Z 01008KT 22/16 A3001 RMK A01 T02200163  RH  073%=      5-min Rain = 0
KPPS 130925Z 01008KT 22/16 A3001 RMK A01 T02200163  RH  074%=      5-min Rain = 0
KPPS 130930Z 02008KT 22/16 A3001 RMK A01 T02190163  RH  074%=      5-min Rain = 0
KPPS 130935Z 02008KT 22/16 A3001 RMK A01 T02180163  RH  074%=      5-min Rain = 0
KPPS 130940Z 01008KT 22/16 A3001 RMK A01 T02170163  RH  075%=      5-min Rain = 0
KPPS 130945Z 01008KT 22/16 A3002 RMK A01 T02160163  RH  075%=      5-min Rain = 0
KPPS 130950Z 01008KT 22/16 A3002 RMK A01 T02150163  RH  076%=      5-min Rain = 0
KPPS 130955Z 01007KT 22/16 A3002 RMK A01 T02150163  RH  076%=      5-min Rain = 0
KPPS 131000Z 02006KT 21/16 A3002 RMK A01 T02140163  RH  076%=      5-min Rain = 0
KPPS 131005Z 05004KT 21/16 A3003 RMK A01 T02140163  RH  077%=      5-min Rain = 0
KPPS 131010Z 15009KT 21/16 A3004 RMK A01 T02110162  RH  077%=      5-min Rain = 0
KPPS 131015Z 09003G9KT 21/16 A3004 RMK A01 T02120163  RH  077%=      5-min Rain = 0
KPPS 131020Z 05005KT 21/16 A3004 RMK A01 T02130164  RH  077%=      5-min Rain = 0
KPPS 131025Z 09005KT 21/16 A3004 RMK A01 T02120164  RH  078%=      5-min Rain = 0
KPPS 131030Z 10004KT 21/16 A3005 RMK A01 T02100163  RH  078%=      5-min Rain = 0
KPPS 131035Z 03004KT 21/16 A3004 RMK A01 T02100163  RH  078%=      5-min Rain = 0
KPPS 131040Z 01005KT 21/16 A3004 RMK A01 T02100163  RH  078%=      5-min Rain = 0
KPPS 131045Z 05003KT 21/16 A3004 RMK A01 T02090163  RH  079%=      5-min Rain = 0
KPPS 131050Z 10003KT 21/16 A3005 RMK A01 T02060162  RH  080%=      5-min Rain = 0
KPPS 131055Z 00009KT 20/16 A3005 RMK A01 T02040162  RH  081%=      5-min Rain = 0
KPPS 131100Z 36010KT 20/16 A3004 RMK A01 T02030162  RH  081%=      5-min Rain = 0
KPPS 131105Z 00005KT 20/16 A3005 RMK A01 T02030163  RH  082%=      5-min Rain = 0
KPPS 131110Z 07002KT 20/16 A3006 RMK A01 T02030164  RH  082%=      5-min Rain = 0
KPPS 131115Z 01006KT 20/16 A3005 RMK A01 T02040164  RH  082%=      5-min Rain = 0
KPPS 131120Z 35011KT 20/16 A3005 RMK A01 T02020164  RH  082%=      5-min Rain = 0
KPPS 131125Z 36008KT 20/16 A3006 RMK A01 T02010164  RH  083%=      5-min Rain = 0
KPPS 131130Z 03001G6KT 20/16 A3007 RMK A01 T02010164  RH  084%=      5-min Rain = 0
KPPS 131135Z 00004G10KT 20/17 A3006 RMK A01 T02010165  RH  084%=      5-min Rain = 0
KPPS 131140Z 35011KT 20/16 A3006 RMK A01 T01990164  RH  084%=      5-min Rain = 0
KPPS 131145Z 36011KT 20/17 A3005 RMK A01 T01980165  RH  085%=      5-min Rain = 0
KPPS 131150Z 01007G12KT 20/16 A3006 RMK A01 T01980164  RH  085%=      5-min Rain = 0
KPPS 131155Z 04004KT 20/17 A3007 RMK A01 T01980165  RH  085%=      5-min Rain = 0
KPPS 131200Z 02007KT 20/17 A3007 RMK A01 T01970165  RH  086%=      5-min Rain = 0
KPPS 131205Z 36011KT 20/16 A3006 RMK A01 T01960164  RH  086%=      5-min Rain = 0
KPPS 131210Z 36009KT 20/17 A3006 RMK A01 T01950165  RH  087%=      5-min Rain = 0
KPPS 131215Z 01007KT 19/17 A3007 RMK A01 T01940165  RH  087%=      5-min Rain = 0
KPPS 131220Z 01010KT 19/17 A3007 RMK A01 T01940165  RH  088%=      5-min Rain = 0
KPPS 131225Z 00011KT 19/17 A3006 RMK A01 T01940165  RH  088%=      5-min Rain = 0
KPPS 131230Z 36009KT 19/17 A3007 RMK A01 T01940166  RH  088%=      5-min Rain = 0
KPPS 131235Z 36008KT 19/17 A3007 RMK A01 T01940166  RH  088%=      5-min Rain = 0
KPPS 131240Z 35009KT 20/17 A3007 RMK A01 T01950167  RH  088%=      5-min Rain = 0
KPPS 131245Z 35010KT 20/17 A3007 RMK A01 T01960167  RH  088%=      5-min Rain = 0
KPPS 131250Z 35011KT 20/17 A3007 RMK A01 T01970167  RH  087%=      5-min Rain = 0
KPPS 131255Z 36011KT 20/17 A3007 RMK A01 T01990168  RH  087%=      5-min Rain = 0
KPPS 131300Z 36011KT 20/17 A3007 RMK A01 T02010169  RH  086%=      5-min Rain = 0
KPPS 131305Z 36013KT 20/17 A3007 RMK A01 T02010169  RH  086%=      5-min Rain = 0
KPPS 131310Z 01013KT 20/17 A3008 RMK A01 T02000170  RH  087%=      5-min Rain = 0
KPPS 131315Z 01013KT 20/17 A3007 RMK A01 T02010170  RH  087%=      5-min Rain = 0
KPPS 131320Z 00013KT 20/17 A3007 RMK A01 T02030171  RH  086%=      5-min Rain = 0
KPPS 131325Z 00012KT 21/17 A3007 RMK A01 T02050172  RH  086%=      5-min Rain = 0
KPPS 131330Z 01013KT 21/17 A3007 RMK A01 T02060172  RH  085%=      5-min Rain = 0
KPPS 131335Z 01012KT 21/17 A3007 RMK A01 T02080173  RH  084%=      5-min Rain = 0
KPPS 131340Z 01012KT 21/17 A3008 RMK A01 T02100174  RH  084%=      5-min Rain = 0
KPPS 131345Z 02011G16KT 21/17 A3008 RMK A01 T02090173  RH  084%=      5-min Rain = 0
KPPS 131350Z 01010KT 21/17 A3008 RMK A01 T02110174  RH  084%=      5-min Rain = 0
KPPS 131355Z 01013KT 21/18 A3008 RMK A01 T02140175  RH  082%=      5-min Rain = 0
KPPS 131400Z 01009G14KT 22/18 A3008 RMK A01 T02170175  RH  081%=      5-min Rain = 0
KPPS 131405Z 01011KT 22/18 A3009 RMK A01 T02210176  RH  080%=      5-min Rain = 0
KPPS 131410Z 02010KT 23/18 A3009 RMK A01 T02250176  RH  078%=      5-min Rain = 0
KPPS 131415Z 02009KT 22/18 A3009 RMK A01 T02240176  RH  078%=      5-min Rain = 0
KPPS 131420Z 00011KT 23/18 A3009 RMK A01 T02270176  RH  077%=      5-min Rain = 0
KPPS 131425Z 01011KT 23/18 A3009 RMK A01 T02280176  RH  076%=      5-min Rain = 0
KPPS 131430Z 00012KT 23/18 A3009 RMK A01 T02280175  RH  076%=      5-min Rain = 0
KPPS 131435Z 02009KT 23/18 A3009 RMK A01 T02290175  RH  076%=      5-min Rain = 0
KPPS 131440Z 02008KT 23/18 A3009 RMK A01 T02290176  RH  076%=      5-min Rain = 0
KPPS 131445Z 03008KT 23/18 A3009 RMK A01 T02320176  RH  074%=      5-min Rain = 0
KPPS 131450Z 02008KT 24/18 A3009 RMK A01 T02350177  RH  074%=      5-min Rain = 0
KPPS 131455Z 02007KT 24/18 A3009 RMK A01 T02410177  RH  071%=      5-min Rain = 0
KPPS 131500Z 02008KT 24/18 A301 RMK A01 T02440177  RH  070%=      5-min Rain = 0
KPPS 131505Z 02009G14KT 25/18 A301 RMK A01 T02450176  RH  069%=      5-min Rain = 0
KPPS 131510Z 01010KT 25/18 A301 RMK A01 T02470176  RH  068%=      5-min Rain = 0
KPPS 131515Z 02009KT 25/18 A301 RMK A01 T02500176  RH  067%=      5-min Rain = 0
KPPS 131520Z 03010KT 25/18 A301 RMK A01 T02510176  RH  067%=      5-min Rain = 0
KPPS 131525Z 02010G15KT 25/18 A301 RMK A01 T02540176  RH  065%=      5-min Rain = 0
KPPS 131530Z 03011G16KT 26/18 A301 RMK A01 T02560177  RH  065%=      5-min Rain = 0
KPPS 131535Z 01011G16KT 26/18 A301 RMK A01 T02580176  RH  064%=      5-min Rain = 0
KPPS 131540Z 02009G14KT 26/18 A301 RMK A01 T02590177  RH  064%=      5-min Rain = 0
KPPS 131545Z 04010G15KT 26/18 A3011 RMK A01 T02610177  RH  063%=      5-min Rain = 0
KPPS 131550Z 02009G15KT 26/18 A3011 RMK A01 T02640177  RH  062%=      5-min Rain = 0
KPPS 131555Z 03010KT 26/18 A3011 RMK A01 T02640177  RH  062%=      5-min Rain = 0
KPPS 131600Z 03010G15KT 26/18 A3011 RMK A01 T02620176  RH  062%=      5-min Rain = 0
KPPS 131605Z 03011KT 26/18 A3011 RMK A01 T02630177  RH  062%=      5-min Rain = 0
KPPS 131610Z 02009KT 27/18 A3011 RMK A01 T02660177  RH  061%=      5-min Rain = 0
KPPS 131615Z 03010KT 27/18 A3011 RMK A01 T02690177  RH  060%=      5-min Rain = 0
KPPS 131620Z 03011G16KT 27/18 A3011 RMK A01 T02740179  RH  059%=      5-min Rain = 0
KPPS 131625Z 02010G17KT 27/18 A3011 RMK A01 T02730177  RH  059%=      5-min Rain = 0
KPPS 131630Z 02011KT 28/18 A3011 RMK A01 T02750177  RH  058%=      5-min Rain = 0
KPPS 131635Z 02010G15KT 28/18 A3011 RMK A01 T02760177  RH  058%=      5-min Rain = 0
KPPS 131640Z 02011KT 28/18 A3012 RMK A01 T02760176  RH  057%=      5-min Rain = 0
KPPS 131645Z 01010KT 28/18 A3012 RMK A01 T02790176  RH  056%=      5-min Rain = 0
KPPS 131650Z 03009G15KT 29/18 A3012 RMK A01 T02850177  RH  055%=      5-min Rain = 0
KPPS 131655Z 01011G16KT 29/18 A3012 RMK A01 T02860176  RH  054%=      5-min Rain = 0
KPPS 131700Z 02011KT 29/18 A3012 RMK A01 T02890175  RH  053%=      5-min Rain = 0
KPPS 131705Z 03011G17KT 29/18 A3012 RMK A01 T02930175  RH  052%=      5-min Rain = 0
KPPS 131710Z 03011KT 29/17 A3012 RMK A01 T02910173  RH  052%=      5-min Rain = 0
KPPS 131715Z 01011G16KT 29/17 A3012 RMK A01 T02920173  RH  051%=      5-min Rain = 0
KPPS 131720Z 02010G16KT 29/17 A3012 RMK A01 T02940169  RH  049%=      5-min Rain = 0
KPPS 131725Z 03010G16KT 30/17 A3012 RMK A01 T02970169  RH  048%=      5-min Rain = 0
KPPS 131730Z 03011G16KT 30/17 A3012 RMK A01 T02960167  RH  048%=      5-min Rain = 0
KPPS 131735Z 02010G15KT 29/17 A3012 RMK A01 T02930168  RH  049%=      5-min Rain = 0
KPPS 131740Z 03012KT 30/17 A3012 RMK A01 T02980171  RH  049%=      5-min Rain = 0
KPPS 131745Z 02011KT 29/17 A3012 RMK A01 T02940169  RH  049%=      5-min Rain = 0
KPPS 131750Z 02010G16KT 30/17 A3012 RMK A01 T02980171  RH  049%=      5-min Rain = 0
KPPS 131755Z 02011G16KT 31/17 A3012 RMK A01 T03050172  RH  047%=      5-min Rain = 0
KPPS 131800Z 02012KT 30/17 A3011 RMK A01 T03030170  RH  047%=      5-min Rain = 0
KPPS 131805Z 02012G17KT 31/17 A3011 RMK A01 T03060173  RH  047%=      5-min Rain = 0
KPPS 131810Z 03013KT 31/17 A3011 RMK A01 T03110171  RH  045%=      5-min Rain = 0
KPPS 131815Z 03011G18KT 31/17 A3011 RMK A01 T03110172  RH  046%=      5-min Rain = 0
KPPS 131820Z 03010G15KT 32/17 A3011 RMK A01 T03150173  RH  045%=      5-min Rain = 0
KPPS 131825Z 03012G19KT 32/17 A3011 RMK A01 T03200173  RH  044%=      5-min Rain = 0
KPPS 131830Z 03013G19KT 31/17 A3011 RMK A01 T03110171  RH  045%=      5-min Rain = 0
KPPS 131835Z 06015KT 31/17 A3011 RMK A01 T03120168  RH  044%=      5-min Rain = 0
KPPS 131840Z 03013G20KT 31/17 A3011 RMK A01 T03130170  RH  044%=      5-min Rain = 0
KPPS 131845Z 05014KT 32/17 A3011 RMK A01 T03160168  RH  043%=      5-min Rain = 0
KPPS 131850Z 05011G16KT 32/17 A3011 RMK A01 T03180170  RH  043%=      5-min Rain = 0
KPPS 131855Z 05011G17KT 32/17 A3011 RMK A01 T03220172  RH  043%=      5-min Rain = 0
KPPS 131900Z 05014G20KT 32/17 A3011 RMK A01 T03240170  RH  042%=      5-min Rain = 0
KPPS 131905Z 05011G19KT 32/17 A3011 RMK A01 T03210172  RH  043%=      5-min Rain = 0
KPPS 131910Z 05013G21KT 32/17 A3011 RMK A01 T03240169  RH  042%=      5-min Rain = 0
KPPS 131915Z 05015G22KT 32/17 A3011 RMK A01 T03210168  RH  042%=      5-min Rain = 0
KPPS 131920Z 07013G23KT 32/17 A3011 RMK A01 T03230171  RH  042%=      5-min Rain = 0
KPPS 131925Z 06013G19KT 33/17 A3011 RMK A01 T03260170  RH  041%=      5-min Rain = 0
KPPS 131930Z 06013G21KT 32/17 A3011 RMK A01 T03200169  RH  043%=      5-min Rain = 0
KPPS 131935Z 06014G21KT 32/17 A301 RMK A01 T03210169  RH  042%=      5-min Rain = 0
KPPS 131940Z 07013G19KT 33/17 A301 RMK A01 T03250171  RH  042%=      5-min Rain = 0
KPPS 131945Z 06014G19KT 32/17 A301 RMK A01 T03230168  RH  041%=      5-min Rain = 0
KPPS 131950Z 06013G18KT 32/17 A301 RMK A01 T03210168  RH  042%=      5-min Rain = 0
KPPS 131955Z 06012G17KT 33/17 A301 RMK A01 T03270168  RH  041%=      5-min Rain = 0
KPPS 132000Z 05012G18KT 33/17 A301 RMK A01 T03290169  RH  041%=      5-min Rain = 0
KPPS 132005Z 06013G18KT 34/17 A301 RMK A01 T03350169  RH  039%=      5-min Rain = 0
KPPS 132010Z 07014KT 34/17 A301 RMK A01 T03380167  RH  038%=      5-min Rain = 0
KPPS 132015Z 07012G17KT 33/16 A301 RMK A01 T03310164  RH  039%=      5-min Rain = 0
KPPS 132020Z 07013G20KT 33/16 A301 RMK A01 T03330164  RH  038%=      5-min Rain = 0
KPPS 132025Z 06014KT 33/16 A301 RMK A01 T03330164  RH  038%=      5-min Rain = 0
KPPS 132030Z 06013G19KT 33/17 A301 RMK A01 T03310165  RH  039%=      5-min Rain = 0
KPPS 132035Z 06014G20KT 33/17 A3009 RMK A01 T03320165  RH  039%=      5-min Rain = 0
KPPS 132040Z 05012G18KT 33/17 A3009 RMK A01 T03300165  RH  039%=      5-min Rain = 0
KPPS 132045Z 07012G17KT 33/16 A3009 RMK A01 T03340163  RH  038%=      5-min Rain = 0
KPPS 132050Z 05011G17KT 33/16 A3009 RMK A01 T03330163  RH  038%=      5-min Rain = 0
KPPS 132055Z 06012G19KT 34/16 A3009 RMK A01 T03370164  RH  037%=      5-min Rain = 0
KPPS 132100Z 08014G22KT 34/16 A3008 RMK A01 T03390161  RH  036%=      5-min Rain = 0
KPPS 132105Z 07012G18KT 34/16 A3008 RMK A01 T03360164  RH  038%=      5-min Rain = 0
KPPS 132110Z 07009G14KT 34/16 A3008 RMK A01 T03350164  RH  038%=      5-min Rain = 0
KPPS 132115Z 08011G18KT 34/17 A3008 RMK A01 T03370165  RH  038%=      5-min Rain = 0
KPPS 132120Z 07013G19KT 34/17 A3008 RMK A01 T03390165  RH  037%=      5-min Rain = 0
KPPS 132125Z 06012KT 34/16 A3007 RMK A01 T03380163  RH  037%=      5-min Rain = 0
KPPS 132130Z 06011G17KT 34/16 A3007 RMK A01 T03380160  RH  036%=      5-min Rain = 0
KPPS 132135Z 07011G16KT 34/16 A3007 RMK A01 T03390161  RH  036%=      5-min Rain = 0
KPPS 132140Z 07012G17KT 34/16 A3007 RMK A01 T03380163  RH  037%=      5-min Rain = 0
KPPS 132145Z 06012G18KT 34/16 A3007 RMK A01 T03410161  RH  036%=      5-min Rain = 0
KPPS 132150Z 06011G16KT 34/16 A3007 RMK A01 T03390160  RH  036%=      5-min Rain = 0
KPPS 132155Z 08011KT 34/16 A3007 RMK A01 T03360160  RH  037%=      5-min Rain = 0
KPPS 132200Z 09012G19KT 34/16 A3006 RMK A01 T03360162  RH  037%=      5-min Rain = 0
KPPS 132205Z 07011G17KT 34/16 A3007 RMK A01 T03390162  RH  036%=      5-min Rain = 0
KPPS 132210Z 05008G15KT 34/16 A3006 RMK A01 T03390160  RH  036%=      5-min Rain = 0
KPPS 132215Z 07011G18KT 34/16 A3006 RMK A01 T03430160  RH  035%=      5-min Rain = 0
KPPS 132220Z 06011G17KT 34/16 A3006 RMK A01 T03390160  RH  036%=      5-min Rain = 0
KPPS 132225Z 05011G16KT 34/16 A3006 RMK A01 T03400160  RH  036%=      5-min Rain = 0
KPPS 132230Z 08013KT 34/16 A3006 RMK A01 T03400163  RH  036%=      5-min Rain = 0
KPPS 132235Z 06013KT 34/16 A3006 RMK A01 T03400162  RH  036%=      5-min Rain = 0
KPPS 132240Z 06011G16KT 34/16 A3006 RMK A01 T03370160  RH  036%=      5-min Rain = 0
KPPS 132245Z 08010G16KT 34/16 A3006 RMK A01 T03400160  RH  036%=      5-min Rain = 0
KPPS 132250Z 08013G19KT 34/16 A3006 RMK A01 T03380160  RH  036%=      5-min Rain = 0
KPPS 132255Z 07011G16KT 34/16 A3006 RMK A01 T03360158  RH  036%=      5-min Rain = 0
KPPS 132300Z 08010G16KT 34/16 A3006 RMK A01 T03370159  RH  036%=      5-min Rain = 0
KPPS 132305Z 08010KT 34/16 A3006 RMK A01 T03350161  RH  037%=      5-min Rain = 0
KPPS 132310Z 05012KT 34/16 A3006 RMK A01 T03360158  RH  036%=      5-min Rain = 0
KPPS 132315Z 07013G18KT 34/16 A3006 RMK A01 T03350157  RH  036%=      5-min Rain = 0
KPPS 132320Z 07009G16KT 33/16 A3006 RMK A01 T03340157  RH  036%=      5-min Rain = 0
KPPS 132325Z 07011G16KT 34/16 A3006 RMK A01 T03350158  RH  036%=      5-min Rain = 0
KPPS 132330Z 07010G16KT 34/16 A3006 RMK A01 T03350160  RH  037%=      5-min Rain = 0
KPPS 132335Z 08012KT 34/16 A3006 RMK A01 T03350160  RH  037%=      5-min Rain = 0
KPPS 132340Z 08013KT 33/16 A3005 RMK A01 T03340160  RH  037%=      5-min Rain = 0
KPPS 132345Z 08010G17KT 33/16 A3005 RMK A01 T03320159  RH  037%=      5-min Rain = 0
KPPS 132350Z 08010G15KT 33/16 A3005 RMK A01 T03310159  RH  037%=      5-min Rain = 0
KPPS 132355Z 05010KT 33/16 A3005 RMK A01 T03330155  RH  036%=      5-min Rain = 0
KPPS 140000Z 05011KT 33/16 A3006 RMK A01 T03310156  RH  037%=      5-min Rain = 0
KPPS 140005Z 06011KT 33/16 A3006 RMK A01 T03320158  RH  037%=      5-min Rain = 0
KPPS 140010Z 06010KT 33/15 A3006 RMK A01 T03300154  RH  036%=      5-min Rain = 0
KPPS 140015Z 07011KT 33/15 A3006 RMK A01 T03300154  RH  036%=      5-min Rain = 0
KPPS 140020Z 07010KT 33/16 A3006 RMK A01 T03280159  RH  038%=      5-min Rain = 0
KPPS 140025Z 07010KT 33/16 A3007 RMK A01 T03270157  RH  038%=      5-min Rain = 0
KPPS 140030Z 07010KT 33/16 A3007 RMK A01 T03260156  RH  038%=      5-min Rain = 0
KPPS 140035Z 08009KT 33/16 A3007 RMK A01 T03260159  RH  038%=      5-min Rain = 0
KPPS 140040Z 09011KT 32/16 A3007 RMK A01 T03240159  RH  039%=      5-min Rain = 0
KPPS 140045Z 08012KT 32/16 A3007 RMK A01 T03210159  RH  040%=      5-min Rain = 0
KPPS 140050Z 09011KT 32/16 A3007 RMK A01 T03170158  RH  040%=      5-min Rain = 0
KPPS 140055Z 08011KT 32/16 A3007 RMK A01 T03150158  RH  041%=      5-min Rain = 0
KPPS 140100Z 08010KT 31/16 A3007 RMK A01 T03130159  RH  041%=      5-min Rain = 0
KPPS 140105Z 08010KT 31/16 A3007 RMK A01 T03120159  RH  041%=      5-min Rain = 0
KPPS 140110Z 08010KT 31/16 A3008 RMK A01 T03110159  RH  042%=      5-min Rain = 0
KPPS 140115Z 08010KT 31/16 A3008 RMK A01 T03100158  RH  042%=      5-min Rain = 0
KPPS 140120Z 08008KT 31/16 A3008 RMK A01 T03080158  RH  042%=      5-min Rain = 0
KPPS 140125Z 08007KT 31/16 A3008 RMK A01 T03060158  RH  043%=      5-min Rain = 0
KPPS 140130Z 08006KT 30/16 A3008 RMK A01 T03040159  RH  044%=      5-min Rain = 0
KPPS 140135Z 08006KT 30/16 A3009 RMK A01 T03020159  RH  044%=      5-min Rain = 0
KPPS 140140Z 08006KT 30/16 A3009 RMK A01 T02990158  RH  045%=      5-min Rain = 0
KPPS 140145Z 09006KT 30/16 A3009 RMK A01 T02970159  RH  045%=      5-min Rain = 0
KPPS 140150Z 09007KT 30/16 A3009 RMK A01 T02950160  RH  046%=      5-min Rain = 0
KPPS 140155Z 09007KT 30/16 A3009 RMK A01 T02950159  RH  046%=      5-min Rain = 0
KPPS 140200Z 09008KT 30/16 A3008 RMK A01 T02950159  RH  046%=      5-min Rain = 0
KPPS 140205Z 09008KT 30/16 A3008 RMK A01 T02950160  RH  046%=      5-min Rain = 0
KPPS 140210Z 08008KT 30/16 A3009 RMK A01 T02950160  RH  046%=      5-min Rain = 0
KPPS 140215Z 07007KT 29/16 A3009 RMK A01 T02900160  RH  047%=      5-min Rain = 0
KPPS 140220Z 08007KT 29/16 A3009 RMK A01 T02850160  RH  049%=      5-min Rain = 0
KPPS 140225Z 07007KT 28/16 A3009 RMK A01 T02820161  RH  050%=      5-min Rain = 0
KPPS 140230Z 07006KT 28/16 A3009 RMK A01 T02790162  RH  051%=      5-min Rain = 0
KPPS 140235Z 06007KT 28/16 A301 RMK A01 T02780163  RH  052%=      5-min Rain = 0
KPPS 140240Z 06007KT 28/16 A301 RMK A01 T02780163  RH  052%=      5-min Rain = 0
KPPS 140245Z 06007KT 28/16 A301 RMK A01 T02770164  RH  053%=      5-min Rain = 0
KPPS 140250Z 06007KT 28/16 A301 RMK A01 T02770164  RH  053%=      5-min Rain = 0
KPPS 140255Z 06008KT 28/16 A3011 RMK A01 T02780164  RH  052%=      5-min Rain = 0
KPPS 140300Z 06008KT 28/16 A3011 RMK A01 T02770164  RH  052%=      5-min Rain = 0
KPPS 140305Z 06008KT 28/16 A3012 RMK A01 T02780164  RH  052%=      5-min Rain = 0
KPPS 140310Z 07007KT 28/16 A3012 RMK A01 T02770164  RH  053%=      5-min Rain = 0
KPPS 140315Z 07007KT 28/16 A3012 RMK A01 T02780163  RH  052%=      5-min Rain = 0
KPPS 140320Z 07007KT 28/16 A3012 RMK A01 T02790163  RH  052%=      5-min Rain = 0
KPPS 140325Z 07008KT 28/16 A3012 RMK A01 T02790163  RH  052%=      5-min Rain = 0
KPPS 140330Z 07008KT 28/16 A3013 RMK A01 T02780163  RH  052%=      5-min Rain = 0
KPPS 140335Z 07008KT 28/16 A3013 RMK A01 T02760164  RH  053%=      5-min Rain = 0
KPPS 140340Z 07007KT 27/16 A3013 RMK A01 T02740164  RH  054%=      5-min Rain = 0
KPPS 140345Z 06008KT 27/17 A3013 RMK A01 T02720165  RH  054%=      5-min Rain = 0
KPPS 140350Z 06008KT 27/16 A3013 RMK A01 T02710164  RH  054%=      5-min Rain = 0
KPPS 140355Z 06007KT 27/16 A3014 RMK A01 T02700164  RH  055%=      5-min Rain = 0
KPPS 140400Z 07007KT 27/16 A3014 RMK A01 T02680164  RH  055%=      5-min Rain = 0
KPPS 140405Z 07008KT 27/16 A3014 RMK A01 T02680163  RH  055%=      5-min Rain = 0
KPPS 140410Z 06009KT 27/16 A3014 RMK A01 T02690164  RH  055%=      5-min Rain = 0
KPPS 140415Z 06009KT 27/16 A3014 RMK A01 T02690164  RH  055%=      5-min Rain = 0
KPPS 140420Z 07009KT 27/16 A3015 RMK A01 T02690164  RH  055%=      5-min Rain = 0
KPPS 140425Z 07009KT 27/16 A3015 RMK A01 T02690164  RH  055%=      5-min Rain = 0
KPPS 140430Z 07009KT 27/17 A3015 RMK A01 T02680165  RH  056%=      5-min Rain = 0
KPPS 140435Z 08009KT 27/17 A3015 RMK A01 T02660165  RH  057%=      5-min Rain = 0
KPPS 140440Z 08009KT 27/17 A3015 RMK A01 T02650165  RH  057%=      5-min Rain = 0
KPPS 140445Z 08008KT 26/17 A3015 RMK A01 T02640166  RH  057%=      5-min Rain = 0
KPPS 140450Z 08009KT 26/17 A3015 RMK A01 T02630166  RH  058%=      5-min Rain = 0
KPPS 140455Z 08009KT 26/17 A3015 RMK A01 T02610166  RH  059%=      5-min Rain = 0

Page generated in 0.0162 seconds.